sensor_id;sensor_type;location;lat;lon;timestamp;pressure;altitude;pressure_sealevel;temperature;humidity
55656;BME280;41530;52.382;5.270;2024-01-30T00:00:06;102784.44;;;15.13;52.62
55656;BME280;41530;52.382;5.270;2024-01-30T00:02:33;102788.41;;;15.20;52.58
55656;BME280;41530;52.382;5.270;2024-01-30T00:05:00;102767.75;;;15.11;52.72
55656;BME280;41530;52.382;5.270;2024-01-30T00:07:26;102796.38;;;15.20;52.73
55656;BME280;41530;52.382;5.270;2024-01-30T00:09:53;102791.28;;;15.17;52.68
55656;BME280;41530;52.382;5.270;2024-01-30T00:12:20;102794.56;;;15.20;52.46
55656;BME280;41530;52.382;5.270;2024-01-30T00:14:46;102791.06;;;15.20;52.69
55656;BME280;41530;52.382;5.270;2024-01-30T00:17:15;102790.41;;;15.16;52.66
55656;BME280;41530;52.382;5.270;2024-01-30T00:19:44;102786.72;;;15.19;52.67
55656;BME280;41530;52.382;5.270;2024-01-30T00:22:11;102779.97;;;15.13;52.48
55656;BME280;41530;52.382;5.270;2024-01-30T00:24:38;102755.03;;;15.02;52.66
55656;BME280;41530;52.382;5.270;2024-01-30T00:27:04;102754.75;;;15.06;52.68
55656;BME280;41530;52.382;5.270;2024-01-30T00:29:31;102778.44;;;15.09;52.85
55656;BME280;41530;52.382;5.270;2024-01-30T00:32:00;102783.19;;;15.18;52.65
55656;BME280;41530;52.382;5.270;2024-01-30T00:34:27;102782.53;;;15.15;52.64
55656;BME280;41530;52.382;5.270;2024-01-30T00:36:53;102773.13;;;15.09;52.76
55656;BME280;41530;52.382;5.270;2024-01-30T00:39:20;102788.63;;;15.17;52.63
55656;BME280;41530;52.382;5.270;2024-01-30T00:41:47;102759.41;;;15.03;52.73
55656;BME280;41530;52.382;5.270;2024-01-30T00:44:14;102780.75;;;15.15;52.55
55656;BME280;41530;52.382;5.270;2024-01-30T00:46:40;102784.25;;;15.16;52.70
55656;BME280;41530;52.382;5.270;2024-01-30T00:49:07;102768.34;;;15.16;52.79
55656;BME280;41530;52.382;5.270;2024-01-30T00:51:34;102753.03;;;15.05;52.75
55656;BME280;41530;52.382;5.270;2024-01-30T00:54:00;102774.75;;;15.12;52.57
55656;BME280;41530;52.382;5.270;2024-01-30T00:56:27;102767.75;;;15.11;52.79
55656;BME280;41530;52.382;5.270;2024-01-30T00:58:54;102757.91;;;15.13;52.78
55656;BME280;41530;52.382;5.270;2024-01-30T01:01:20;102767.66;;;15.12;52.58
55656;BME280;41530;52.382;5.270;2024-01-30T01:03:47;102766.81;;;15.12;52.68
55656;BME280;41530;52.382;5.270;2024-01-30T01:06:15;102772.19;;;15.10;52.58
55656;BME280;41530;52.382;5.270;2024-01-30T01:08:42;102760.06;;;15.06;52.67
55656;BME280;41530;52.382;5.270;2024-01-30T01:11:08;102773.91;;;15.11;52.83
55656;BME280;41530;52.382;5.270;2024-01-30T01:13:35;102715.56;;;14.81;52.88
55656;BME280;41530;52.382;5.270;2024-01-30T01:16:02;102756.66;;;15.04;52.73
55656;BME280;41530;52.382;5.270;2024-01-30T01:18:30;102737.50;;;14.99;52.72
55656;BME280;41530;52.382;5.270;2024-01-30T01:20:57;102744.16;;;15.06;52.69
55656;BME280;41530;52.382;5.270;2024-01-30T01:23:23;102747.50;;;15.10;52.91
55656;BME280;41530;52.382;5.270;2024-01-30T01:25:50;102752.78;;;15.10;52.92
55656;BME280;41530;52.382;5.270;2024-01-30T01:28:17;102752.78;;;15.10;52.62
55656;BME280;41530;52.382;5.270;2024-01-30T01:30:46;102750.13;;;15.10;52.91
55656;BME280;41530;52.382;5.270;2024-01-30T01:33:13;102745.78;;;15.09;52.69
55656;BME280;41530;52.382;5.270;2024-01-30T01:35:41;102736.66;;;14.98;52.78
55656;BME280;41530;52.382;5.270;2024-01-30T01:38:08;102746.31;;;15.00;52.92
55656;BME280;41530;52.382;5.270;2024-01-30T01:40:34;102759.97;;;15.08;52.79
55656;BME280;41530;52.382;5.270;2024-01-30T01:43:03;102764.31;;;15.09;52.72
55656;BME280;41530;52.382;5.270;2024-01-30T01:45:30;102757.41;;;15.06;52.64
55656;BME280;41530;52.382;5.270;2024-01-30T01:47:57;102759.03;;;15.09;52.94
55656;BME280;41530;52.382;5.270;2024-01-30T01:50:24;102749.75;;;15.02;52.77
55656;BME280;41530;52.382;5.270;2024-01-30T01:52:52;102769.63;;;15.09;52.79
55656;BME280;41530;52.382;5.270;2024-01-30T01:55:21;102728.91;;;14.80;52.88
55656;BME280;41530;52.382;5.270;2024-01-30T01:57:53;102768.78;;;15.08;52.94
55656;BME280;41530;52.382;5.270;2024-01-30T02:00:20;102759.31;;;15.04;52.99
55656;BME280;41530;52.382;5.270;2024-01-30T02:02:47;102750.59;;;15.02;52.87
55656;BME280;41530;52.382;5.270;2024-01-30T02:05:15;102747.25;;;14.98;52.89
55656;BME280;41530;52.382;5.270;2024-01-30T02:07:43;102760.81;;;15.08;52.83
55656;BME280;41530;52.382;5.270;2024-01-30T02:10:10;102759.97;;;15.08;53.10
55656;BME280;41530;52.382;5.270;2024-01-30T02:12:37;102742.56;;;15.04;52.90
55656;BME280;41530;52.382;5.270;2024-01-30T02:15:05;102737.44;;;15.01;52.95
55656;BME280;41530;52.382;5.270;2024-01-30T02:17:31;102718.66;;;14.89;52.83
55656;BME280;41530;52.382;5.270;2024-01-30T02:19:59;102735.34;;;15.06;52.84
55656;BME280;41530;52.382;5.270;2024-01-30T02:22:26;102716.31;;;14.99;52.85
55656;BME280;41530;52.382;5.270;2024-01-30T02:24:52;102710.53;;;15.07;52.90
55656;BME280;41530;52.382;5.270;2024-01-30T02:27:19;102721.34;;;15.04;52.96
55656;BME280;41530;52.382;5.270;2024-01-30T02:29:46;102711.88;;;15.00;52.91
55656;BME280;41530;52.382;5.270;2024-01-30T02:32:13;102727.38;;;15.06;53.00
55656;BME280;41530;52.382;5.270;2024-01-30T02:34:39;102706.38;;;15.03;53.18
55656;BME280;41530;52.382;5.270;2024-01-30T02:37:06;102678.00;;;14.75;52.73
55656;BME280;41530;52.382;5.270;2024-01-30T02:39:33;102721.44;;;15.02;53.07
55656;BME280;41530;52.382;5.270;2024-01-30T02:41:59;102714.94;;;14.92;52.85
55656;BME280;41530;52.382;5.270;2024-01-30T02:44:26;102731.44;;;14.97;53.14
55656;BME280;41530;52.382;5.270;2024-01-30T02:46:53;102714.00;;;14.93;53.07
55656;BME280;41530;52.382;5.270;2024-01-30T02:49:20;102699.03;;;14.92;52.83
55656;BME280;41530;52.382;5.270;2024-01-30T02:51:50;102699.72;;;14.95;52.96
55656;BME280;41530;52.382;5.270;2024-01-30T02:54:17;102696.66;;;15.03;52.77
55656;BME280;41530;52.382;5.270;2024-01-30T02:56:43;102677.66;;;14.95;52.97
55656;BME280;41530;52.382;5.270;2024-01-30T02:59:10;102712.63;;;15.02;52.91
55656;BME280;41530;52.382;5.270;2024-01-30T03:01:43;102679.63;;;14.91;52.93
55656;BME280;41530;52.382;5.270;2024-01-30T03:04:11;102695.09;;;14.99;53.06
55656;BME280;41530;52.382;5.270;2024-01-30T03:06:38;102684.69;;;14.96;53.04
55656;BME280;41530;52.382;5.270;2024-01-30T03:09:04;102634.53;;;14.63;53.21
55656;BME280;41530;52.382;5.270;2024-01-30T03:11:31;102676.34;;;14.88;53.07
55656;BME280;41530;52.382;5.270;2024-01-30T03:13:58;102674.44;;;14.90;53.08
55656;BME280;41530;52.382;5.270;2024-01-30T03:16:24;102682.97;;;14.95;53.01
55656;BME280;41530;52.382;5.270;2024-01-30T03:18:51;102667.78;;;14.83;53.16
55656;BME280;41530;52.382;5.270;2024-01-30T03:21:18;102672.91;;;14.86;53.07
55656;BME280;41530;52.382;5.270;2024-01-30T03:23:44;102691.59;;;14.98;52.90
55656;BME280;41530;52.382;5.270;2024-01-30T03:26:11;102687.31;;;14.96;52.98
55656;BME280;41530;52.382;5.270;2024-01-30T03:28:39;102666.38;;;14.91;52.96
55656;BME280;41530;52.382;5.270;2024-01-30T03:31:06;102691.34;;;15.03;53.18
55656;BME280;41530;52.382;5.270;2024-01-30T03:33:33;102677.22;;;15.03;53.04
55656;BME280;41530;52.382;5.270;2024-01-30T03:36:04;102676.16;;;15.05;53.11
55656;BME280;41530;52.382;5.270;2024-01-30T03:38:31;102668.44;;;15.02;53.14
55656;BME280;41530;52.382;5.270;2024-01-30T03:40:59;102653.72;;;14.96;53.30
55656;BME280;41530;52.382;5.270;2024-01-30T03:43:26;102671.06;;;15.02;53.16
55656;BME280;41530;52.382;5.270;2024-01-30T03:45:53;102646.81;;;14.94;53.02
55656;BME280;41530;52.382;5.270;2024-01-30T03:48:21;102661.25;;;15.04;52.77
55656;BME280;41530;52.382;5.270;2024-01-30T03:50:47;102647.09;;;14.89;53.11
55656;BME280;41530;52.382;5.270;2024-01-30T03:53:14;102658.94;;;14.98;52.94
55656;BME280;41530;52.382;5.270;2024-01-30T03:55:41;102669.53;;;14.98;53.01
55656;BME280;41530;52.382;5.270;2024-01-30T03:58:07;102659.13;;;14.95;53.06
55656;BME280;41530;52.382;5.270;2024-01-30T04:00:34;102664.94;;;15.02;52.92
55656;BME280;41530;52.382;5.270;2024-01-30T04:03:01;102679.88;;;15.03;52.90
55656;BME280;41530;52.382;5.270;2024-01-30T04:05:28;102651.72;;;14.86;53.07
55656;BME280;41530;52.382;5.270;2024-01-30T04:07:55;102660.81;;;14.96;53.12
55656;BME280;41530;52.382;5.270;2024-01-30T04:10:22;102661.78;;;14.95;53.05
55656;BME280;41530;52.382;5.270;2024-01-30T04:12:49;102671.16;;;15.01;53.12
55656;BME280;41530;52.382;5.270;2024-01-30T04:15:16;102649.75;;;14.89;53.06
55656;BME280;41530;52.382;5.270;2024-01-30T04:17:43;102670.13;;;15.03;53.04
55656;BME280;41530;52.382;5.270;2024-01-30T04:20:17;102660.66;;;14.99;53.21
55656;BME280;41530;52.382;5.270;2024-01-30T04:22:44;102664.25;;;14.98;53.04
55656;BME280;41530;52.382;5.270;2024-01-30T04:25:12;102639.06;;;14.91;53.14
55656;BME280;41530;52.382;5.270;2024-01-30T04:27:38;102650.91;;;15.00;52.97
55656;BME280;41530;52.382;5.270;2024-01-30T04:30:05;102660.56;;;15.01;52.94
55656;BME280;41530;52.382;5.270;2024-01-30T04:32:32;102634.31;;;14.96;53.00
55656;BME280;41530;52.382;5.270;2024-01-30T04:34:59;102640.47;;;14.96;52.88
55656;BME280;41530;52.382;5.270;2024-01-30T04:37:26;102649.28;;;14.97;52.89
55656;BME280;41530;52.382;5.270;2024-01-30T04:39:53;102613.09;;;14.82;52.89
55656;BME280;41530;52.382;5.270;2024-01-30T04:42:19;102645.50;;;15.01;52.96
55656;BME280;41530;52.382;5.270;2024-01-30T04:44:46;102633.56;;;14.94;52.91
55656;BME280;41530;52.382;5.270;2024-01-30T04:47:12;102642.00;;;15.01;52.86
55656;BME280;41530;52.382;5.270;2024-01-30T04:49:39;102647.22;;;15.02;52.94
55656;BME280;41530;52.382;5.270;2024-01-30T04:52:07;102646.81;;;14.94;52.93
55656;BME280;41530;52.382;5.270;2024-01-30T04:54:34;102635.34;;;14.93;52.80
55656;BME280;41530;52.382;5.270;2024-01-30T04:57:01;102594.16;;;14.74;53.04
55656;BME280;41530;52.382;5.270;2024-01-30T04:59:28;102641.16;;;15.00;53.18
55656;BME280;41530;52.382;5.270;2024-01-30T05:01:55;102635.25;;;14.95;53.16
55656;BME280;41530;52.382;5.270;2024-01-30T05:04:22;102612.31;;;14.80;53.04
55656;BME280;41530;52.382;5.270;2024-01-30T05:06:49;102598.69;;;14.72;53.02
55656;BME280;41530;52.382;5.270;2024-01-30T05:09:15;102583.25;;;14.64;52.96
55656;BME280;41530;52.382;5.270;2024-01-30T05:11:42;102614.53;;;14.87;52.92
55656;BME280;41530;52.382;5.270;2024-01-30T05:14:09;102629.78;;;14.98;52.92
55656;BME280;41530;52.382;5.270;2024-01-30T05:16:37;102617.09;;;14.89;52.90
55656;BME280;41530;52.382;5.270;2024-01-30T05:19:04;102629.78;;;14.98;52.91
55656;BME280;41530;52.382;5.270;2024-01-30T05:21:30;102641.91;;;15.02;52.80
55656;BME280;41530;52.382;5.270;2024-01-30T05:23:57;102625.59;;;14.94;52.94
55656;BME280;41530;52.382;5.270;2024-01-30T05:26:23;102623.91;;;14.93;53.06
55656;BME280;41530;52.382;5.270;2024-01-30T05:28:50;102597.47;;;14.77;52.97
55656;BME280;41530;52.382;5.270;2024-01-30T05:31:17;102621.94;;;14.96;53.06
55656;BME280;41530;52.382;5.270;2024-01-30T05:33:43;102648.06;;;15.03;53.26
55656;BME280;41530;52.382;5.270;2024-01-30T05:36:14;102610.09;;;14.88;53.01
55656;BME280;41530;52.382;5.270;2024-01-30T05:38:40;102634.06;;;15.01;53.05
55656;BME280;41530;52.382;5.270;2024-01-30T05:41:08;102642.78;;;15.03;52.57
55656;BME280;41530;52.382;5.270;2024-01-30T05:43:35;102639.28;;;15.02;52.78
55656;BME280;41530;52.382;5.270;2024-01-30T05:46:01;102616.25;;;14.88;52.98
55656;BME280;41530;52.382;5.270;2024-01-30T05:48:28;102606.50;;;14.89;52.95
55656;BME280;41530;52.382;5.270;2024-01-30T05:50:55;102624.84;;;14.92;53.14
55656;BME280;41530;52.382;5.270;2024-01-30T05:53:22;102623.91;;;14.93;53.10
55656;BME280;41530;52.382;5.270;2024-01-30T05:55:48;102630.56;;;15.00;53.05
55656;BME280;41530;52.382;5.270;2024-01-30T05:58:15;102626.47;;;14.94;53.35
55656;BME280;41530;52.382;5.270;2024-01-30T06:00:42;102606.66;;;14.86;53.30
55656;BME280;41530;52.382;5.270;2024-01-30T06:03:08;102633.03;;;15.03;53.29
55656;BME280;41530;52.382;5.270;2024-01-30T06:05:35;102622.19;;;14.92;53.61
55656;BME280;41530;52.382;5.270;2024-01-30T06:08:02;102627.31;;;14.95;53.46
55656;BME280;41530;52.382;5.270;2024-01-30T06:10:29;102610.94;;;14.88;53.37
55656;BME280;41530;52.382;5.270;2024-01-30T06:12:55;102620.03;;;14.98;53.67
55656;BME280;41530;52.382;5.270;2024-01-30T06:15:22;102632.16;;;15.03;54.17
55656;BME280;41530;52.382;5.270;2024-01-30T06:17:49;102623.28;;;15.04;54.37
55656;BME280;41530;52.382;5.270;2024-01-30T06:20:16;102617.22;;;15.02;53.96
55656;BME280;41530;52.382;5.270;2024-01-30T06:22:42;102622.31;;;15.05;54.17
55656;BME280;41530;52.382;5.270;2024-01-30T06:25:09;102621.38;;;15.06;53.88
55656;BME280;41530;52.382;5.270;2024-01-30T06:27:36;102631.03;;;15.07;53.97
55656;BME280;41530;52.382;5.270;2024-01-30T06:30:04;102601.66;;;14.95;53.91
55656;BME280;41530;52.382;5.270;2024-01-30T06:32:31;102615.22;;;15.05;53.92
55656;BME280;41530;52.382;5.270;2024-01-30T06:35:01;102592.84;;;14.95;53.89
55656;BME280;41530;52.382;5.270;2024-01-30T06:37:28;102602.53;;;14.96;53.54
55656;BME280;41530;52.382;5.270;2024-01-30T06:39:55;102600.91;;;14.93;53.45
55656;BME280;41530;52.382;5.270;2024-01-30T06:42:21;102624.94;;;15.05;53.45
55656;BME280;41530;52.382;5.270;2024-01-30T06:44:48;102635.47;;;15.06;53.56
55656;BME280;41530;52.382;5.270;2024-01-30T06:47:15;102629.69;;;15.00;53.26
55656;BME280;41530;52.382;5.270;2024-01-30T06:49:42;102643.50;;;15.05;53.09
55656;BME280;41530;52.382;5.270;2024-01-30T06:52:10;102633.28;;;14.98;53.30
55656;BME280;41530;52.382;5.270;2024-01-30T06:54:38;102623.72;;;14.96;53.35
55656;BME280;41530;52.382;5.270;2024-01-30T06:57:04;102631.41;;;15.01;53.08
55656;BME280;41530;52.382;5.270;2024-01-30T06:59:34;102634.16;;;14.99;53.27
55656;BME280;41530;52.382;5.270;2024-01-30T07:02:01;102622.88;;;14.95;53.91
55656;BME280;41530;52.382;5.270;2024-01-30T07:04:28;102598.03;;;14.82;53.77
55656;BME280;41530;52.382;5.270;2024-01-30T07:06:55;102627.91;;;15.00;53.64
55656;BME280;41530;52.382;5.270;2024-01-30T07:09:21;102632.25;;;15.01;53.86
55656;BME280;41530;52.382;5.270;2024-01-30T07:11:49;102595.78;;;14.76;53.81
55656;BME280;41530;52.382;5.270;2024-01-30T07:14:16;102642.56;;;15.06;53.80
55656;BME280;41530;52.382;5.270;2024-01-30T07:16:44;102587.75;;;14.78;53.86
55656;BME280;41530;52.382;5.270;2024-01-30T07:19:10;102616.03;;;14.91;53.92
55656;BME280;41530;52.382;5.270;2024-01-30T07:21:37;102650.44;;;15.07;53.78
55656;BME280;41530;52.382;5.270;2024-01-30T07:24:05;102636.78;;;14.99;53.73
55656;BME280;41530;52.382;5.270;2024-01-30T07:26:31;102649.66;;;15.05;54.00
55656;BME280;41530;52.382;5.270;2024-01-30T07:28:58;102660.28;;;15.05;53.82
55656;BME280;41530;52.382;5.270;2024-01-30T07:31:25;102649.97;;;15.01;53.56
55656;BME280;41530;52.382;5.270;2024-01-30T07:33:53;102652.31;;;15.05;53.88
55656;BME280;41530;52.382;5.270;2024-01-30T07:36:21;102641.06;;;15.02;53.55
55656;BME280;41530;52.382;5.270;2024-01-30T07:38:47;102637.75;;;14.98;53.52
55656;BME280;41530;52.382;5.270;2024-01-30T07:41:14;102625.91;;;14.89;53.82
55656;BME280;41530;52.382;5.270;2024-01-30T07:43:42;102631.66;;;14.96;53.75
55656;BME280;41530;52.382;5.270;2024-01-30T07:46:12;102640.47;;;14.96;53.37
55656;BME280;41530;52.382;5.270;2024-01-30T07:48:39;102669.06;;;15.06;53.63
55656;BME280;41530;52.382;5.270;2024-01-30T07:51:05;102665.88;;;15.01;53.61
55656;BME280;41530;52.382;5.270;2024-01-30T07:53:32;102664.06;;;15.01;53.61
55656;BME280;41530;52.382;5.270;2024-01-30T07:55:59;102664.06;;;15.01;53.43
55656;BME280;41530;52.382;5.270;2024-01-30T07:58:25;102648.59;;;14.93;53.59
55656;BME280;41530;52.382;5.270;2024-01-30T08:00:54;102665.56;;;15.05;53.47
55656;BME280;41530;52.382;5.270;2024-01-30T08:03:23;102678.72;;;15.07;53.45
55656;BME280;41530;52.382;5.270;2024-01-30T08:05:49;102677.78;;;15.08;53.43
55656;BME280;41530;52.382;5.270;2024-01-30T08:08:16;102665.19;;;14.97;53.51
55656;BME280;41530;52.382;5.270;2024-01-30T08:10:43;102664.25;;;14.98;53.52
55656;BME280;41530;52.382;5.270;2024-01-30T08:13:09;102680.28;;;15.11;53.43
55656;BME280;41530;52.382;5.270;2024-01-30T08:15:36;102662.34;;;15.00;53.43
55656;BME280;41530;52.382;5.270;2024-01-30T08:18:03;102677.78;;;15.08;53.47
55656;BME280;41530;52.382;5.270;2024-01-30T08:20:31;102682.16;;;15.09;53.29
55656;BME280;41530;52.382;5.270;2024-01-30T08:22:57;102691.72;;;15.11;53.60
55656;BME280;41530;52.382;5.270;2024-01-30T08:25:24;102690.88;;;15.11;53.24
55656;BME280;41530;52.382;5.270;2024-01-30T08:27:51;102662.63;;;14.95;53.17
55656;BME280;41530;52.382;5.270;2024-01-30T08:30:19;102675.53;;;15.02;53.29
55656;BME280;41530;52.382;5.270;2024-01-30T08:32:45;102691.03;;;15.08;53.51
55656;BME280;41530;52.382;5.270;2024-01-30T08:35:12;102696.94;;;15.13;53.13
55656;BME280;41530;52.382;5.270;2024-01-30T08:37:42;102697.97;;;15.10;53.13
55656;BME280;41530;52.382;5.270;2024-01-30T08:40:08;102696.09;;;15.12;53.14
55656;BME280;41530;52.382;5.270;2024-01-30T08:42:35;102688.47;;;15.06;53.24
55656;BME280;41530;52.382;5.270;2024-01-30T08:45:03;102698.75;;;15.12;53.54
55656;BME280;41530;52.382;5.270;2024-01-30T08:47:31;102696.84;;;15.14;53.24
55656;BME280;41530;52.382;5.270;2024-01-30T08:49:58;102693.53;;;15.11;53.06
55656;BME280;41530;52.382;5.270;2024-01-30T08:52:25;102695.06;;;15.15;53.18
55656;BME280;41530;52.382;5.270;2024-01-30T08:54:51;102690.97;;;15.09;53.18
55656;BME280;41530;52.382;5.270;2024-01-30T08:57:19;102702.25;;;15.13;53.05
55656;BME280;41530;52.382;5.270;2024-01-30T08:59:46;102701.00;;;15.18;52.97
55656;BME280;41530;52.382;5.270;2024-01-30T09:02:13;102702.84;;;15.18;53.05
55656;BME280;41530;52.382;5.270;2024-01-30T09:04:42;102684.63;;;15.12;53.20
55656;BME280;41530;52.382;5.270;2024-01-30T09:07:11;102703.78;;;15.17;52.97
55656;BME280;41530;52.382;5.270;2024-01-30T09:09:40;102697.72;;;15.15;52.98
55656;BME280;41530;52.382;5.270;2024-01-30T09:12:08;102699.50;;;15.14;52.96
55656;BME280;41530;52.382;5.270;2024-01-30T09:14:36;102726.56;;;15.19;52.96
55656;BME280;41530;52.382;5.270;2024-01-30T09:17:03;102708.97;;;15.18;52.91
55656;BME280;41530;52.382;5.270;2024-01-30T09:19:30;102690.09;;;15.09;52.97
55656;BME280;41530;52.382;5.270;2024-01-30T09:21:57;102718.53;;;15.21;53.03
55656;BME280;41530;52.382;5.270;2024-01-30T09:24:26;102700.63;;;15.10;52.96
55656;BME280;41530;52.382;5.270;2024-01-30T09:26:53;102715.88;;;15.21;52.67
55656;BME280;41530;52.382;5.270;2024-01-30T09:29:20;102693.44;;;15.12;52.72
55656;BME280;41530;52.382;5.270;2024-01-30T09:31:47;102692.41;;;15.15;52.84
55656;BME280;41530;52.382;5.270;2024-01-30T09:34:14;102696.00;;;15.14;52.76
55656;BME280;41530;52.382;5.270;2024-01-30T09:36:41;102685.75;;;15.08;52.92
55656;BME280;41530;52.382;5.270;2024-01-30T09:39:07;102705.38;;;15.19;52.53
55656;BME280;41530;52.382;5.270;2024-01-30T09:41:51;102712.28;;;15.22;52.81
55656;BME280;41530;52.382;5.270;2024-01-30T09:44:23;102698.91;;;15.09;52.87
55656;BME280;41530;52.382;5.270;2024-01-30T09:46:51;102723.59;;;15.25;52.70
55656;BME280;41530;52.382;5.270;2024-01-30T09:49:18;102716.91;;;15.18;52.65
55656;BME280;41530;52.382;5.270;2024-01-30T09:51:48;102707.47;;;15.14;52.71
55656;BME280;41530;52.382;5.270;2024-01-30T09:54:15;102720.94;;;15.25;52.73
55656;BME280;41530;52.382;5.270;2024-01-30T09:56:42;102713.81;;;15.26;52.82
55656;BME280;41530;52.382;5.270;2024-01-30T09:59:09;102720.84;;;15.27;52.62
55656;BME280;41530;52.382;5.270;2024-01-30T10:01:36;102714.59;;;15.28;52.48
55656;BME280;41530;52.382;5.270;2024-01-30T10:04:04;102710.59;;;15.21;52.61
55656;BME280;41530;52.382;5.270;2024-01-30T10:06:31;102719.22;;;15.24;52.62
55656;BME280;41530;52.382;5.270;2024-01-30T10:08:58;102679.19;;;14.99;52.64
55656;BME280;41530;52.382;5.270;2024-01-30T10:11:25;102714.09;;;15.21;52.58
55656;BME280;41530;52.382;5.270;2024-01-30T10:13:51;102719.31;;;15.23;52.69
55656;BME280;41530;52.382;5.270;2024-01-30T10:16:18;102721.19;;;15.21;52.59
55656;BME280;41530;52.382;5.270;2024-01-30T10:18:45;102737.44;;;15.30;52.48
55656;BME280;41530;52.382;5.270;2024-01-30T10:21:12;102734.09;;;15.27;52.55
55656;BME280;41530;52.382;5.270;2024-01-30T10:23:39;102729.47;;;15.30;52.79
55656;BME280;41530;52.382;5.270;2024-01-30T10:26:07;102743.28;;;15.36;52.49
55656;BME280;41530;52.382;5.270;2024-01-30T10:28:36;102730.88;;;15.36;52.43
55656;BME280;41530;52.382;5.270;2024-01-30T10:31:03;102737.91;;;15.37;52.48
55656;BME280;41530;52.382;5.270;2024-01-30T10:33:32;102729.56;;;15.29;52.56
55656;BME280;41530;52.382;5.270;2024-01-30T10:36:04;102740.09;;;15.30;52.40
55656;BME280;41530;52.382;5.270;2024-01-30T10:38:32;102734.88;;;15.29;52.43
55656;BME280;41530;52.382;5.270;2024-01-30T10:41:00;102764.50;;;15.36;52.34
55656;BME280;41530;52.382;5.270;2024-01-30T10:43:40;102758.84;;;15.42;52.40
55656;BME280;41530;52.382;5.270;2024-01-30T10:46:18;102758.84;;;15.42;52.29
55656;BME280;41530;52.382;5.270;2024-01-30T10:48:57;102768.44;;;15.44;52.33
55656;BME280;41530;52.382;5.270;2024-01-30T10:51:26;102760.34;;;15.46;52.35
55656;BME280;41530;52.382;5.270;2024-01-30T10:53:55;102770.47;;;15.55;52.33
55656;BME280;41530;52.382;5.270;2024-01-30T10:56:23;102761.63;;;15.54;52.36
55656;BME280;41530;52.382;5.270;2024-01-30T10:58:50;102764.78;;;15.61;52.20
55656;BME280;41530;52.382;5.270;2024-01-30T11:01:22;102754.56;;;15.55;52.14
55656;BME280;41530;52.382;5.270;2024-01-30T11:03:53;102755.63;;;15.51;51.92
55656;BME280;41530;52.382;5.270;2024-01-30T11:06:25;102779.56;;;15.65;52.05
55656;BME280;41530;52.382;5.270;2024-01-30T11:09:02;102745.88;;;15.51;51.95
55656;BME280;41530;52.382;5.270;2024-01-30T11:11:30;102781.97;;;15.70;51.95
55656;BME280;41530;52.382;5.270;2024-01-30T11:14:00;102780.34;;;15.67;51.90
55656;BME280;41530;52.382;5.270;2024-01-30T11:16:32;102764.00;;;15.59;51.96
55656;BME280;41530;52.382;5.270;2024-01-30T11:19:00;102780.16;;;15.70;52.13
55656;BME280;41530;52.382;5.270;2024-01-30T11:21:28;102792.94;;;15.63;51.70
55656;BME280;41530;52.382;5.270;2024-01-30T11:23:55;102784.78;;;15.66;51.94
55656;BME280;41530;52.382;5.270;2024-01-30T11:26:27;102790.19;;;15.65;51.96
55656;BME280;41530;52.382;5.270;2024-01-30T11:28:55;102776.25;;;15.61;51.97
55656;BME280;41530;52.382;5.270;2024-01-30T11:31:22;102790.19;;;15.65;51.81
55656;BME280;41530;52.382;5.270;2024-01-30T11:33:52;102777.41;;;15.57;51.85
55656;BME280;41530;52.382;5.270;2024-01-30T11:36:25;102800.91;;;15.63;51.88
55656;BME280;41530;52.382;5.270;2024-01-30T11:38:52;102781.00;;;15.56;51.88
55656;BME280;41530;52.382;5.270;2024-01-30T11:41:18;102796.63;;;15.61;52.01
55656;BME280;41530;52.382;5.270;2024-01-30T11:43:53;102784.59;;;15.55;51.97
55656;BME280;41530;52.382;5.270;2024-01-30T11:46:20;102789.59;;;15.60;52.05
55656;BME280;41530;52.382;5.270;2024-01-30T11:48:47;102782.78;;;15.56;51.87
55656;BME280;41530;52.382;5.270;2024-01-30T11:51:14;102777.81;;;15.50;52.03
55656;BME280;41530;52.382;5.270;2024-01-30T11:53:41;102785.50;;;15.54;52.03
55656;BME280;41530;52.382;5.270;2024-01-30T11:56:08;102788.16;;;15.54;51.96
55656;BME280;41530;52.382;5.270;2024-01-30T11:58:35;102793.31;;;15.57;52.21
55656;BME280;41530;52.382;5.270;2024-01-30T12:01:01;102797.56;;;15.60;52.24
55656;BME280;41530;52.382;5.270;2024-01-30T12:03:28;102811.13;;;15.55;52.33
55656;BME280;41530;52.382;5.270;2024-01-30T12:05:58;102798.00;;;15.52;52.22
55656;BME280;41530;52.382;5.270;2024-01-30T12:08:26;102804.06;;;15.54;52.37
55656;BME280;41530;52.382;5.270;2024-01-30T12:10:57;102811.97;;;15.56;52.24
55656;BME280;41530;52.382;5.270;2024-01-30T12:13:32;102808.59;;;15.52;52.25
55656;BME280;41530;52.382;5.270;2024-01-30T12:16:00;102810.41;;;15.52;52.38
55656;BME280;41530;52.382;5.270;2024-01-30T12:18:27;102798.00;;;15.52;52.38
55656;BME280;41530;52.382;5.270;2024-01-30T12:20:58;102803.72;;;15.60;52.25
55656;BME280;41530;52.382;5.270;2024-01-30T12:23:27;102778.91;;;15.46;52.23
55656;BME280;41530;52.382;5.270;2024-01-30T12:25:54;102809.03;;;15.60;52.36
55656;BME280;41530;52.382;5.270;2024-01-30T12:28:21;102815.00;;;15.64;52.33
55656;BME280;41530;52.382;5.270;2024-01-30T12:30:48;102806.47;;;15.59;52.36
55656;BME280;41530;52.382;5.270;2024-01-30T12:33:18;102795.84;;;15.59;52.06
55656;BME280;41530;52.382;5.270;2024-01-30T12:35:48;102797.91;;;15.54;52.26
55656;BME280;41530;52.382;5.270;2024-01-30T12:38:27;102802.31;;;15.55;52.20
55656;BME280;41530;52.382;5.270;2024-01-30T12:40:54;102818.44;;;15.66;52.19
55656;BME280;41530;52.382;5.270;2024-01-30T12:43:23;102831.03;;;15.62;52.09
55656;BME280;41530;52.382;5.270;2024-01-30T12:46:03;102804.34;;;15.50;52.17
55656;BME280;41530;52.382;5.270;2024-01-30T12:48:30;102817.19;;;15.57;52.22
55656;BME280;41530;52.382;5.270;2024-01-30T12:51:01;102808.88;;;15.48;52.23